CheckWX is a tool to help pilots better visualize weather data.  It is not intended as a substitute for an official pre-flight weather briefing.

07:01:09 UTC

KBBG TAF
Branson Airport
Branson, Missouri, USA
KBBG 210520Z 2106/2206 14008KT P6SM SCT080 FM211400 18011KT P6SM VCSH SCT025 BKN080 FM211500 18010G18KT P6SM SCT030 BKN100 PROB30 2115/2121 4SM -TSRA BR BKN030CB FM212300 18011KT P6SM FEW040 SCT100 FM220200 17009KT P6SM SCT060 BKN100

Sep-21@
06:00 UTC

Sep-21 @ 06:00 UTC

Sep-21@
14:00 UTC

Sep-21 @ 14:00 UTC

KBBG 210520Z 2106/2206 14008KT P6SM SCT080
Wind
  • 140° at 8 KTS
Cloud Levels
  • Scattered at 8,000' AGL

Sep-21@
14:00 UTC

Sep-21 @ 14:00 UTC

Sep-21@
15:00 UTC

Sep-21 @ 15:00 UTC

FM211400 18011KT P6SM VCSH SCT025 BKN080

From

From Standard forecast or significant change

Wind
  • 180° at 11 KTS
Cloud Levels
  • Scattered at 2,500' AGL
  • Broken at 8,000' AGL

Sep-21@
15:00 UTC

Sep-21 @ 15:00 UTC

Sep-21@
21:00 UTC

Sep-21 @ 21:00 UTC

PROB30 2115/2121 4SM -TSRA BR BKN030CB

Probable - 30% Likelihood

Probable - 30% Likelihood during this time.

Conditions
Light Thunderstorm, Light Rain, Mist
Cloud Levels
  • Broken at 3,000' AGL

Sep-21@
15:00 UTC

Sep-21 @ 15:00 UTC

Sep-21@
23:00 UTC

Sep-21 @ 23:00 UTC

FM211500 18010G18KT P6SM SCT030 BKN100

From

From Standard forecast or significant change

Wind
  • 180° at 10 KTS
  • {Gusting to 18 KTS
Cloud Levels
  • Scattered at 3,000' AGL
  • Broken at 10,000' AGL

Sep-21@
23:00 UTC

Sep-21 @ 23:00 UTC

Sep-22@
02:00 UTC

Sep-22 @ 02:00 UTC

FM212300 18011KT P6SM FEW040 SCT100

From

From Standard forecast or significant change

Wind
  • 180° at 11 KTS
Cloud Levels
  • Few at 4,000' AGL
  • Scattered at 10,000' AGL

Sep-22@
02:00 UTC

Sep-22 @ 02:00 UTC

Sep-22@
06:00 UTC

Sep-22 @ 06:00 UTC

FM220200 17009KT P6SM SCT060 BKN100

From

From Standard forecast or significant change

Wind
  • 170° at 9 KTS
Cloud Levels
  • Scattered at 6,000' AGL
  • Broken at 10,000' AGL